createdAt,value
2022-08-30T00:00:41.221Z,100256.85
2022-08-30T00:05:44.653Z,100255.66
2022-08-30T00:10:47.358Z,100255.83
2022-08-30T00:15:50.440Z,100257.16
2022-08-30T00:20:53.056Z,100258.26
2022-08-30T00:25:55.736Z,100262.60
2022-08-30T00:30:58.430Z,100258.09
2022-08-30T00:36:01.138Z,100257.45
2022-08-30T00:41:03.831Z,100254.02
2022-08-30T00:46:08.793Z,100255.42
2022-08-30T00:51:13.741Z,100261.85
2022-08-30T00:56:18.058Z,100262.84
2022-08-30T01:01:21.043Z,100258.01
2022-08-30T01:06:23.728Z,100258.91
2022-08-30T01:11:26.431Z,100259.61
2022-08-30T01:16:31.080Z,100260.07
2022-08-30T01:21:42.901Z,100261.80
2022-08-30T01:26:45.556Z,100262.59
2022-08-30T01:31:49.516Z,100261.67
2022-08-30T01:36:52.100Z,100258.68
2022-08-30T01:41:54.722Z,100254.90
2022-08-30T01:46:57.352Z,100251.37
2022-08-30T01:52:00.883Z,100252.94
2022-08-30T01:57:05.690Z,100249.67
2022-08-30T02:02:08.744Z,100254.63
2022-08-30T02:07:12.020Z,100255.37
2022-08-30T02:12:15.427Z,100251.89
2022-08-30T02:17:19.616Z,100254.27
2022-08-30T02:22:22.199Z,100257.14
2022-08-30T02:27:26.320Z,100252.83
2022-08-30T02:32:28.946Z,100257.17
2022-08-30T02:37:31.552Z,100251.55
2022-08-30T02:42:34.276Z,100256.05
2022-08-30T02:47:37.772Z,100260.42
2022-08-30T02:52:40.399Z,100264.02
2022-08-30T02:57:44.809Z,100266.00
2022-08-30T03:02:47.476Z,100266.02
2022-08-30T03:07:50.517Z,100262.86
2022-08-30T03:12:53.469Z,100267.30
2022-08-30T03:17:56.642Z,100264.50
2022-08-30T03:22:59.233Z,100264.40
2022-08-30T03:28:03.032Z,100260.29
2022-08-30T03:33:05.622Z,100260.63
2022-08-30T03:38:09.837Z,100272.09
2022-08-30T03:43:12.522Z,100277.68
2022-08-30T03:48:15.374Z,100279.84
2022-08-30T03:53:18.124Z,100280.23
2022-08-30T03:58:21.341Z,100284.52
2022-08-30T04:03:26.160Z,100291.34
2022-08-30T04:08:29.005Z,100296.95
2022-08-30T04:13:31.605Z,100301.23
2022-08-30T04:18:35.712Z,100305.14
2022-08-30T04:23:38.770Z,100308.08
2022-08-30T04:28:41.686Z,100311.90
2022-08-30T04:33:44.675Z,100316.61
2022-08-30T04:38:47.282Z,100318.55
2022-08-30T04:43:50.786Z,100324.16
2022-08-30T04:48:53.423Z,100324.38
2022-08-30T04:53:56.226Z,100324.40
2022-08-30T04:58:58.829Z,100327.90
2022-08-30T05:04:01.710Z,100328.44
2022-08-30T05:09:05.682Z,100328.14
2022-08-30T05:14:08.294Z,100332.90
2022-08-30T05:19:11.013Z,100341.48
2022-08-30T05:24:13.749Z,100343.91
2022-08-30T05:29:16.349Z,100347.93
2022-08-30T05:34:19.051Z,100353.79
2022-08-30T05:39:22.264Z,100352.09
2022-08-30T05:44:25.994Z,100354.41
2022-08-30T05:49:28.589Z,100355.79
2022-08-30T05:54:31.209Z,100365.41
2022-08-30T05:59:33.861Z,100365.37
2022-08-30T06:04:39.532Z,100371.29
2022-08-30T06:09:42.231Z,100376.45
2022-08-30T06:14:44.902Z,100382.35
2022-08-30T06:19:47.713Z,100389.86
2022-08-30T06:24:58.280Z,100393.58
2022-08-30T06:30:01.123Z,100389.75
2022-08-30T06:35:04.841Z,100395.30
2022-08-30T06:40:07.943Z,100397.98
2022-08-30T06:45:11.294Z,100407.13
2022-08-30T06:50:15.471Z,100406.55
2022-08-30T06:55:18.877Z,100409.39
2022-08-30T07:00:21.491Z,100412.81
2022-08-30T07:05:24.346Z,100416.44
2022-08-30T07:10:26.962Z,100416.91
2022-08-30T07:15:29.606Z,100415.70
2022-08-30T07:20:40.514Z,100417.98
2022-08-30T07:25:43.487Z,100421.15
2022-08-30T07:30:46.209Z,100432.09
2022-08-30T07:35:49.523Z,100439.56
2022-08-30T07:40:52.329Z,100439.17
2022-08-30T07:46:00.356Z,100435.16
2022-08-30T07:51:05.551Z,100440.46
2022-08-30T07:56:08.289Z,100445.23
2022-08-30T08:01:12.133Z,100454.39
2022-08-30T08:06:16.342Z,100456.77
2022-08-30T08:11:23.269Z,100456.64
2022-08-30T08:16:27.984Z,100465.53
2022-08-30T08:21:31.264Z,100476.17
2022-08-30T08:26:34.851Z,100476.05
2022-08-30T08:31:38.094Z,100477.55
2022-08-30T08:36:41.137Z,100480.42
2022-08-30T08:41:46.553Z,100487.70
2022-08-30T08:46:49.133Z,100487.33
2022-08-30T08:52:10.365Z,100492.95
2022-08-30T08:57:16.010Z,100492.80
2022-08-30T09:02:34.469Z,100493.10
2022-08-30T09:07:39.959Z,100502.90
2022-08-30T09:12:45.354Z,100500.83
2022-08-30T09:18:19.532Z,100497.17
2022-08-30T09:23:27.453Z,100499.75
2022-08-30T09:28:32.384Z,100503.99
2022-08-30T09:33:37.130Z,100510.60
2022-08-30T09:38:40.297Z,100511.52
2022-08-30T09:43:42.891Z,100507.84
2022-08-30T09:48:46.131Z,100513.52
2022-08-30T09:54:16.557Z,100508.43
2022-08-30T09:59:26.757Z,100514.89
2022-08-30T10:04:34.630Z,100521.03
2022-08-30T10:09:41.946Z,100526.71
2022-08-30T10:14:56.457Z,100532.70
2022-08-30T10:20:07.573Z,100539.93
2022-08-30T10:30:38.560Z,100536.81
2022-08-30T10:35:51.123Z,100547.30
2022-08-30T10:41:15.205Z,100554.54
2022-08-30T10:46:36.342Z,100558.16
2022-08-30T10:51:42.116Z,100555.52
2022-08-30T10:56:45.937Z,100560.58
2022-08-30T11:02:07.307Z,100564.77
2022-08-30T11:07:12.695Z,100561.65
2022-08-30T11:12:33.889Z,100562.30
2022-08-30T11:17:40.181Z,100561.70
2022-08-30T11:22:43.014Z,100563.20
2022-08-30T11:27:45.573Z,100567.32
2022-08-30T11:33:09.473Z,100574.14
2022-08-30T11:38:28.575Z,100578.89
2022-08-30T11:43:34.248Z,100579.91
2022-08-30T11:49:00.355Z,100585.34
2022-08-30T11:54:08.712Z,100583.16
2022-08-30T11:59:20.880Z,100581.83
2022-08-30T12:04:35.812Z,100587.13
2022-08-30T12:09:39.064Z,100594.23
2022-08-30T12:14:44.938Z,100591.98
2022-08-30T12:19:50.566Z,100594.95
2022-08-30T12:24:55.068Z,100590.30
2022-08-30T12:29:59.476Z,100584.60
2022-08-30T12:35:04.154Z,100584.06
2022-08-30T12:40:18.523Z,100582.45
2022-08-30T12:45:23.102Z,100582.58
2022-08-30T12:50:28.965Z,100576.77
2022-08-30T12:55:33.685Z,100579.34
2022-08-30T13:00:38.560Z,100578.06
2022-08-30T13:05:44.316Z,100570.25
2022-08-30T13:10:54.235Z,100564.98
2022-08-30T13:15:57.562Z,100564.23
2022-08-30T13:21:11.651Z,100574.89
2022-08-30T13:26:23.247Z,100579.05
2022-08-30T13:31:27.458Z,100575.81
2022-08-30T13:36:31.383Z,100576.04
2022-08-30T13:41:34.774Z,100576.48
2022-08-30T13:46:40.045Z,100577.67
2022-08-30T13:52:03.425Z,100580.11
2022-08-30T13:57:07.445Z,100573.05
2022-08-30T14:02:11.474Z,100572.31
2022-08-30T14:07:20.129Z,100572.81
2022-08-30T14:12:52.381Z,100569.20
2022-08-30T14:17:46.113Z,100571.92
2022-08-30T14:22:48.826Z,100573.75
2022-08-30T14:27:51.788Z,100575.88
2022-08-30T14:32:54.351Z,100574.77
2022-08-30T14:37:57.600Z,100576.45
2022-08-30T14:43:01.626Z,100578.48
2022-08-30T14:48:11.300Z,100581.02
2022-08-30T14:53:14.426Z,100580.77
2022-08-30T14:58:18.204Z,100581.81
2022-08-30T15:03:20.905Z,100582.24
2022-08-30T15:08:23.427Z,100584.94
2022-08-30T15:13:28.200Z,100585.48
2022-08-30T15:18:30.847Z,100585.58
2022-08-30T15:23:33.655Z,100583.08
2022-08-30T15:28:36.678Z,100584.66
2022-08-30T15:33:39.712Z,100584.15
2022-08-30T15:38:43.921Z,100585.38
2022-08-30T15:43:46.728Z,100577.56
2022-08-30T15:48:51.904Z,100576.06
2022-08-30T15:53:54.659Z,100576.86
2022-08-30T15:58:57.339Z,100581.80
2022-08-30T16:04:00.680Z,100574.52
2022-08-30T16:09:04.629Z,100572.41
2022-08-30T16:14:07.687Z,100571.19
2022-08-30T16:19:10.649Z,100573.27
2022-08-30T16:24:14.287Z,100572.42
2022-08-30T16:29:17.275Z,100576.67
2022-08-30T16:34:20.501Z,100578.18
2022-08-30T16:39:23.268Z,100581.58
2022-08-30T16:44:29.883Z,100571.83
2022-08-30T16:49:32.686Z,100578.03
2022-08-30T16:54:35.450Z,100581.52
2022-08-30T16:59:38.087Z,100579.19
2022-08-30T17:04:42.361Z,100582.37
2022-08-30T17:09:46.580Z,100582.98
2022-08-30T17:14:50.326Z,100589.58
2022-08-30T17:19:53.076Z,100587.06
2022-08-30T17:24:55.774Z,100593.31
2022-08-30T17:29:59.896Z,100590.57
2022-08-30T17:35:03.014Z,100590.83
2022-08-30T17:40:14.498Z,100589.35
2022-08-30T17:45:17.940Z,100591.23
2022-08-30T17:50:21.050Z,100595.50
2022-08-30T17:55:23.702Z,100604.96
2022-08-30T18:00:27.261Z,100616.39
2022-08-30T18:05:29.922Z,100613.60
2022-08-30T18:10:35.283Z,100618.46
2022-08-30T18:15:38.149Z,100620.95
2022-08-30T18:20:47.139Z,100626.98
2022-08-30T18:25:55.439Z,100635.52
2022-08-30T18:30:58.631Z,100639.30
2022-08-30T18:36:01.708Z,100648.29
2022-08-30T18:41:06.633Z,100647.05
2022-08-30T18:46:10.624Z,100647.59
2022-08-30T18:51:19.208Z,100648.33
2022-08-30T18:56:22.232Z,100648.74
2022-08-30T19:01:30.767Z,100650.31
2022-08-30T19:06:35.026Z,100654.48
2022-08-30T19:11:40.572Z,100658.27
2022-08-30T19:16:43.272Z,100663.73
2022-08-30T19:21:45.901Z,100666.89
2022-08-30T19:26:48.688Z,100666.25
2022-08-30T19:31:52.494Z,100668.31
2022-08-30T19:36:55.199Z,100663.19
2022-08-30T19:41:58.558Z,100667.04
2022-08-30T19:47:02.850Z,100670.65
2022-08-30T19:52:05.752Z,100675.47
2022-08-30T19:57:10.047Z,100677.96
2022-08-30T20:07:37.642Z,100676.83
2022-08-30T20:12:45.006Z,100678.80
2022-08-30T20:18:06.081Z,100677.65
2022-08-30T20:23:11.926Z,100674.81
2022-08-30T20:28:17.073Z,100673.24
2022-08-30T20:33:20.502Z,100673.81
2022-08-30T20:38:24.096Z,100676.18
2022-08-30T20:43:28.298Z,100674.92
2022-08-30T20:48:32.393Z,100677.55
2022-08-30T20:53:35.497Z,100678.70
2022-08-30T20:58:38.082Z,100682.11
2022-08-30T21:03:41.044Z,100683.00
2022-08-30T21:08:44.140Z,100682.64
2022-08-30T21:13:48.651Z,100685.59
2022-08-30T21:18:51.619Z,100689.25
2022-08-30T21:23:57.214Z,100689.67
2022-08-30T21:28:59.946Z,100690.81
2022-08-30T21:34:02.554Z,100692.73
2022-08-30T21:39:06.786Z,100692.23
2022-08-30T21:44:11.722Z,100694.47
2022-08-30T21:49:16.117Z,100698.27
2022-08-30T21:54:18.764Z,100698.54
2022-08-30T21:59:21.697Z,100700.96
2022-08-30T22:04:26.464Z,100699.17
2022-08-30T22:09:29.354Z,100697.94
2022-08-30T22:14:32.557Z,100698.60
2022-08-30T22:19:35.204Z,100698.21
2022-08-30T22:24:39.600Z,100693.09
2022-08-30T22:29:42.768Z,100692.80
2022-08-30T22:34:45.740Z,100695.19
2022-08-30T22:39:50.285Z,100691.64
2022-08-30T22:44:53.039Z,100691.67
2022-08-30T22:49:55.621Z,100689.98
2022-08-30T22:54:58.209Z,100691.54
2022-08-30T23:00:01.916Z,100693.30
2022-08-30T23:05:05.207Z,100693.33
2022-08-30T23:10:08.549Z,100697.50
2022-08-30T23:15:12.765Z,100695.50
2022-08-30T23:20:15.339Z,100696.44
2022-08-30T23:25:41.567Z,100693.39
2022-08-30T23:31:05.751Z,100698.63
2022-08-30T23:36:31.541Z,100698.54
2022-08-30T23:41:52.950Z,100694.40
2022-08-30T23:47:14.534Z,100692.34
2022-08-30T23:52:35.909Z,100687.23
2022-08-30T23:57:56.990Z,100686.42
